UAL2359 KEWR-KPBI
Flight info
| Callsign | UAL2359 |
|---|---|
| Flight time | N/A |
| Altitude | 38000 |
| Route | ELVAE NECCK WHITE Q409 CRPLR EARZZ Q131 WAALT Y289 DULEE CLMNT2 |
| Aircraft | A319/M-SDE3FGHIRWY/LB1 |
Departure
| Time | 2026-04-20 22:38 |
|---|---|
| Airport | Newark Liberty International Airport (KEWR) |
Arrival
| Time | N/A |
|---|---|
| Airport | Palm Beach International Airport (KPBI) |
| Time | Latitude | Longitude | Altitude | Speed | Heading |
|---|---|---|---|---|---|
| 2026-04-20 22:10 | 40.69601 | -74.17348 | 24 ft | 0 kts | 142° |
| 2026-04-20 22:21 | 40.69611 | -74.17358 | 24 ft | 2 kts | 141° |
| 2026-04-20 22:21 | 40.69620 | -74.17368 | 24 ft | 0 kts | 142° |
| 2026-04-20 22:21 | 40.69629 | -74.17378 | 24 ft | 2 kts | 115° |
| 2026-04-20 22:22 | 40.69632 | -74.17397 | 24 ft | 2 kts | 82° |
| 2026-04-20 22:22 | 40.69626 | -74.17416 | 24 ft | 1 kts | 49° |
| 2026-04-20 22:22 | 40.69622 | -74.17421 | 24 ft | 1 kts | 36° |
| 2026-04-20 22:22 | 40.69619 | -74.17424 | 24 ft | 0 kts | 40° |
| 2026-04-20 22:25 | 40.69626 | -74.17416 | 24 ft | 5 kts | 42° |
| 2026-04-20 22:25 | 40.69643 | -74.17396 | 24 ft | 0 kts | 41° |
| 2026-04-20 22:29 | 40.69661 | -74.17375 | 24 ft | 5 kts | 40° |
| 2026-04-20 22:29 | 40.69685 | -74.17348 | 24 ft | 3 kts | 40° |
| 2026-04-20 22:29 | 40.69694 | -74.17338 | 24 ft | 0 kts | 41° |
| 2026-04-20 22:31 | 40.69695 | -74.17337 | 24 ft | 0 kts | 40° |
| 2026-04-20 22:31 | 40.69714 | -74.17287 | 24 ft | 9 kts | 79° |
| 2026-04-20 22:31 | 40.69754 | -74.17204 | 24 ft | 14 kts | 50° |
| 2026-04-20 22:32 | 40.69775 | -74.17123 | 24 ft | 9 kts | 129° |
| 2026-04-20 22:32 | 40.69687 | -74.17051 | 24 ft | 18 kts | 154° |
| 2026-04-20 22:32 | 40.69560 | -74.16992 | 24 ft | 20 kts | 166° |
| 2026-04-20 22:32 | 40.69418 | -74.16972 | 24 ft | 21 kts | 180° |
| 2026-04-20 22:33 | 40.69274 | -74.17004 | 24 ft | 21 kts | 201° |
| 2026-04-20 22:33 | 40.69136 | -74.17090 | 24 ft | 21 kts | 206° |
| 2026-04-20 22:33 | 40.69000 | -74.17176 | 24 ft | 22 kts | 206° |
| 2026-04-20 22:33 | 40.68862 | -74.17265 | 24 ft | 22 kts | 206° |
| 2026-04-20 22:34 | 40.68722 | -74.17353 | 24 ft | 22 kts | 206° |
| 2026-04-20 22:34 | 40.68581 | -74.17442 | 24 ft | 22 kts | 206° |
| 2026-04-20 22:34 | 40.68440 | -74.17533 | 24 ft | 22 kts | 206° |
| 2026-04-20 22:34 | 40.68297 | -74.17623 | 24 ft | 23 kts | 205° |
| 2026-04-20 22:35 | 40.68150 | -74.17715 | 24 ft | 23 kts | 205° |
| 2026-04-20 22:35 | 40.68005 | -74.17808 | 24 ft | 23 kts | 206° |
| 2026-04-20 22:35 | 40.67858 | -74.17900 | 24 ft | 23 kts | 206° |
| 2026-04-20 22:35 | 40.67720 | -74.17988 | 24 ft | 16 kts | 206° |
| 2026-04-20 22:36 | 40.67636 | -74.18043 | 24 ft | 9 kts | 205° |
| 2026-04-20 22:36 | 40.67611 | -74.18048 | 24 ft | 0 kts | 169° |
| 2026-04-20 22:36 | 40.67610 | -74.18048 | 24 ft | 0 kts | 169° |
| 2026-04-20 22:36 | 40.67589 | -74.18029 | 24 ft | 7 kts | 135° |
| 2026-04-20 22:37 | 40.67559 | -74.17959 | 24 ft | 10 kts | 101° |
| 2026-04-20 22:37 | 40.67583 | -74.17914 | 24 ft | 0 kts | 26° |
| 2026-04-20 22:37 | 40.67584 | -74.17914 | 24 ft | 3 kts | 26° |
| 2026-04-20 22:37 | 40.67849 | -74.17748 | 24 ft | 79 kts | 24° |
| 2026-04-20 22:38 | 40.68546 | -74.17302 | 25 ft | 141 kts | 25° |
| 2026-04-20 22:38 | 40.69496 | -74.16644 | 466 ft | 157 kts | 24° |
| 2026-04-20 22:38 | 40.70406 | -74.15933 | 1282 ft | 152 kts | 22° |
| 2026-04-20 22:38 | 40.71284 | -74.15286 | 2059 ft | 146 kts | 23° |
| 2026-04-20 22:39 | 40.72148 | -74.14493 | 2502 ft | 161 kts | 34° |
| 2026-04-20 22:39 | 40.73048 | -74.13493 | 2930 ft | 177 kts | 34° |
| 2026-04-20 22:39 | 40.74058 | -74.12378 | 3125 ft | 209 kts | 35° |
| 2026-04-20 22:39 | 40.75287 | -74.11049 | 3081 ft | 242 kts | 36° |
| 2026-04-20 22:40 | 40.76616 | -74.09605 | 3059 ft | 246 kts | 32° |
| 2026-04-20 22:40 | 40.78153 | -74.08763 | 2978 ft | 239 kts | 1° |
| 2026-04-20 22:40 | 40.79745 | -74.09183 | 2932 ft | 237 kts | 334° |
| 2026-04-20 22:40 | 40.81102 | -74.10435 | 2938 ft | 239 kts | 316° |
| 2026-04-20 22:41 | 40.81985 | -74.12332 | 2993 ft | 254 kts | 288° |
| 2026-04-20 22:41 | 40.81997 | -74.14697 | 3756 ft | 264 kts | 263° |
| 2026-04-20 22:41 | 40.81564 | -74.17011 | 4472 ft | 260 kts | 258° |
| 2026-04-20 22:41 | 40.81072 | -74.19296 | 4948 ft | 260 kts | 258° |
| 2026-04-20 22:42 | 40.80584 | -74.21575 | 5002 ft | 260 kts | 257° |
| 2026-04-20 22:42 | 40.80092 | -74.23860 | 4944 ft | 258 kts | 258° |
| 2026-04-20 22:42 | 40.79595 | -74.26145 | 4927 ft | 258 kts | 257° |
| 2026-04-20 22:42 | 40.79093 | -74.28427 | 4929 ft | 259 kts | 257° |
| 2026-04-20 22:43 | 40.78493 | -74.30661 | 4956 ft | 262 kts | 246° |
| 2026-04-20 22:43 | 40.77245 | -74.32497 | 5226 ft | 281 kts | 213° |
| 2026-04-20 22:43 | 40.75391 | -74.33341 | 6233 ft | 288 kts | 187° |
| 2026-04-20 22:43 | 40.73441 | -74.33246 | 7386 ft | 286 kts | 178° |
| 2026-04-20 22:44 | 40.71466 | -74.33003 | 8455 ft | 286 kts | 177° |
| 2026-04-20 22:44 | 40.69509 | -74.32756 | 9340 ft | 288 kts | 178° |
| 2026-04-20 22:44 | 40.67496 | -74.32516 | 9882 ft | 289 kts | 178° |
| 2026-04-20 22:44 | 40.65480 | -74.32288 | 10024 ft | 288 kts | 179° |
| 2026-04-20 22:45 | 40.63503 | -74.32070 | 10011 ft | 286 kts | 179° |
| 2026-04-20 22:45 | 40.61515 | -74.31852 | 10007 ft | 286 kts | 179° |
| 2026-04-20 22:45 | 40.59502 | -74.31629 | 10005 ft | 287 kts | 179° |
| 2026-04-20 22:45 | 40.57530 | -74.31413 | 10004 ft | 286 kts | 178° |
| 2026-04-20 22:46 | 40.55532 | -74.31190 | 10005 ft | 286 kts | 179° |
| 2026-04-20 22:46 | 40.53555 | -74.30972 | 10005 ft | 286 kts | 178° |
| 2026-04-20 22:46 | 40.51582 | -74.30753 | 10003 ft | 285 kts | 179° |
| 2026-04-20 22:46 | 40.49581 | -74.30528 | 10002 ft | 285 kts | 179° |
| 2026-04-20 22:47 | 40.47616 | -74.30310 | 9998 ft | 285 kts | 179° |
| 2026-04-20 22:47 | 40.45634 | -74.30090 | 9998 ft | 284 kts | 179° |
| 2026-04-20 22:47 | 40.43661 | -74.29871 | 10003 ft | 284 kts | 179° |
| 2026-04-20 22:47 | 40.41696 | -74.29654 | 10011 ft | 284 kts | 179° |
| 2026-04-20 22:48 | 40.39701 | -74.29433 | 10008 ft | 284 kts | 179° |
| 2026-04-20 22:48 | 40.37734 | -74.29216 | 10003 ft | 285 kts | 179° |
| 2026-04-20 22:48 | 40.35741 | -74.28994 | 10005 ft | 286 kts | 179° |
| 2026-04-20 22:48 | 40.33738 | -74.28775 | 10291 ft | 298 kts | 179° |
| 2026-04-20 22:49 | 40.31621 | -74.28543 | 10921 ft | 309 kts | 179° |
| 2026-04-20 22:49 | 40.29489 | -74.28307 | 11755 ft | 312 kts | 179° |
| 2026-04-20 22:49 | 40.27309 | -74.28067 | 12549 ft | 316 kts | 179° |
| 2026-04-20 22:49 | 40.25116 | -74.27824 | 13293 ft | 320 kts | 179° |
| 2026-04-20 22:50 | 40.22899 | -74.27580 | 14017 ft | 324 kts | 179° |
| 2026-04-20 22:50 | 40.20649 | -74.27332 | 14731 ft | 328 kts | 179° |
| 2026-04-20 22:50 | 40.18361 | -74.27080 | 15444 ft | 332 kts | 179° |
| 2026-04-20 22:50 | 40.16022 | -74.26823 | 16136 ft | 336 kts | 179° |
| 2026-04-20 22:51 | 40.13705 | -74.26568 | 16792 ft | 341 kts | 179° |
| 2026-04-20 22:51 | 40.11319 | -74.26305 | 17444 ft | 345 kts | 179° |
| 2026-04-20 22:51 | 40.08905 | -74.26041 | 18082 ft | 349 kts | 179° |
| 2026-04-20 22:51 | 40.06480 | -74.25774 | 18712 ft | 353 kts | 179° |
| 2026-04-20 22:52 | 40.04031 | -74.25504 | 19321 ft | 357 kts | 179° |
| 2026-04-20 22:52 | 40.01539 | -74.25541 | 19940 ft | 355 kts | 194° |
| 2026-04-20 22:52 | 39.99223 | -74.26556 | 20560 ft | 350 kts | 212° |
| 2026-04-20 22:52 | 39.97213 | -74.28300 | 21159 ft | 349 kts | 220° |
| 2026-04-20 22:53 | 39.95265 | -74.30195 | 21731 ft | 352 kts | 221° |
| 2026-04-20 22:53 | 39.93298 | -74.32118 | 22269 ft | 357 kts | 221° |
| 2026-04-20 22:53 | 39.91299 | -74.34052 | 22828 ft | 360 kts | 221° |
| 2026-04-20 22:53 | 39.89287 | -74.35982 | 23387 ft | 362 kts | 220° |
| 2026-04-20 22:54 | 39.87229 | -74.37944 | 23915 ft | 366 kts | 220° |
| 2026-04-20 22:54 | 39.85189 | -74.39883 | 24430 ft | 368 kts | 220° |
| 2026-04-20 22:54 | 39.83123 | -74.41898 | 24931 ft | 369 kts | 223° |
| 2026-04-20 22:54 | 39.81148 | -74.44071 | 25384 ft | 370 kts | 226° |
| 2026-04-20 22:55 | 39.79304 | -74.46378 | 25820 ft | 370 kts | 230° |
| 2026-04-20 22:55 | 39.77501 | -74.48766 | 26217 ft | 372 kts | 230° |
| 2026-04-20 22:55 | 39.75693 | -74.51170 | 26597 ft | 374 kts | 230° |
| 2026-04-20 22:55 | 39.74159 | -74.53204 | 26910 ft | 376 kts | 230° |
| 2026-04-20 22:56 | 39.73759 | -74.53736 | 26986 ft | 376 kts | 230° |
| 2026-04-20 22:56 | 39.71907 | -74.56193 | 27339 ft | 379 kts | 231° |
| 2026-04-20 22:56 | 39.70064 | -74.58633 | 27672 ft | 382 kts | 230° |
| 2026-04-20 22:56 | 39.68212 | -74.61083 | 28013 ft | 384 kts | 231° |
| 2026-04-20 22:57 | 39.66313 | -74.63595 | 28346 ft | 386 kts | 231° |
| 2026-04-20 22:57 | 39.64445 | -74.66061 | 28674 ft | 388 kts | 230° |
| 2026-04-20 22:57 | 39.62539 | -74.68577 | 28997 ft | 390 kts | 230° |
| 2026-04-20 22:57 | 39.60652 | -74.71065 | 29304 ft | 392 kts | 230° |
| 2026-04-20 22:58 | 39.58864 | -74.73420 | 29592 ft | 394 kts | 230° |
| 2026-04-20 22:58 | 39.56935 | -74.75958 | 29897 ft | 396 kts | 230° |
| 2026-04-20 22:58 | 39.54997 | -74.78507 | 30198 ft | 398 kts | 230° |
| 2026-04-20 22:58 | 39.53282 | -74.80763 | 30454 ft | 400 kts | 230° |
| 2026-04-20 22:59 | 39.51321 | -74.83337 | 30727 ft | 403 kts | 230° |
| 2026-04-20 22:59 | 39.49371 | -74.85897 | 31011 ft | 404 kts | 230° |
| 2026-04-20 22:59 | 39.47372 | -74.88515 | 31276 ft | 407 kts | 230° |
| 2026-04-20 22:59 | 39.45381 | -74.91122 | 31542 ft | 409 kts | 231° |